createdAt,value
2022-10-17T00:02:25.837Z,98769.22
2022-10-17T00:07:28.908Z,98783.03
2022-10-17T00:12:33.836Z,98788.00
2022-10-17T00:17:38.282Z,98790.78
2022-10-17T00:22:41.179Z,98790.78
2022-10-17T00:27:45.434Z,98783.72
2022-10-17T00:32:50.567Z,98793.03
2022-10-17T00:37:53.418Z,98800.38
2022-10-17T00:42:57.477Z,98810.09
2022-10-17T00:48:04.893Z,98807.97
2022-10-17T00:53:09.514Z,98808.09
2022-10-17T00:58:13.897Z,98804.44
2022-10-17T01:03:18.854Z,98810.06
2022-10-17T01:08:21.892Z,98808.53
2022-10-17T01:13:31.848Z,98811.88
2022-10-17T01:18:47.959Z,98804.94
2022-10-17T01:24:29.640Z,98801.56
2022-10-17T01:30:10.246Z,98809.84
2022-10-17T01:35:23.195Z,98808.16
2022-10-17T01:40:30.671Z,98811.94
2022-10-17T01:45:41.742Z,98810.78
2022-10-17T01:50:50.626Z,98806.53
2022-10-17T01:55:55.165Z,98807.09
2022-10-17T02:01:01.102Z,98805.00
2022-10-17T02:06:08.504Z,98803.19
2022-10-17T02:11:16.089Z,98801.38
2022-10-17T02:16:30.372Z,98797.16
2022-10-17T02:21:43.540Z,98802.91
2022-10-17T02:26:53.548Z,98806.31
2022-10-17T02:32:02.099Z,98808.44
2022-10-17T02:37:08.865Z,98808.31
2022-10-17T02:42:14.202Z,98807.16
2022-10-17T02:47:22.745Z,98807.00
2022-10-17T02:52:33.204Z,98803.09
2022-10-17T02:57:40.770Z,98806.19
2022-10-17T03:02:46.448Z,98814.94
2022-10-17T03:07:50.903Z,98808.03
2022-10-17T03:12:53.664Z,98804.50
2022-10-17T03:17:56.940Z,98811.69
2022-10-17T03:23:02.089Z,98816.88
2022-10-17T03:28:05.798Z,98812.78
2022-10-17T03:33:09.098Z,98823.78
2022-10-17T03:38:13.957Z,98835.03
2022-10-17T03:43:17.532Z,98829.13
2022-10-17T03:48:20.477Z,98824.59
2022-10-17T03:53:24.997Z,98823.78
2022-10-17T03:58:27.849Z,98824.47
2022-10-17T04:03:31.609Z,98827.88
2022-10-17T04:08:36.291Z,98841.09
2022-10-17T04:13:44.226Z,98849.81
2022-10-17T04:18:47.688Z,98855.75
2022-10-17T04:23:56.039Z,98856.88
2022-10-17T04:29:15.187Z,98865.22
2022-10-17T04:34:20.120Z,98868.16
2022-10-17T04:39:24.310Z,98870.13
2022-10-17T04:44:30.775Z,98864.06
2022-10-17T04:49:34.611Z,98857.84
2022-10-17T04:54:46.061Z,98849.28
2022-10-17T04:59:49.878Z,98854.63
2022-10-17T05:05:05.079Z,98854.63
2022-10-17T05:10:10.187Z,98859.97
2022-10-17T05:15:13.321Z,98857.69
2022-10-17T05:20:16.937Z,98861.03
2022-10-17T05:25:22.055Z,98872.00
2022-10-17T05:30:25.790Z,98862.16
2022-10-17T05:35:33.489Z,98863.81
2022-10-17T05:40:39.309Z,98878.75
2022-10-17T05:45:42.190Z,98865.63
2022-10-17T05:50:50.094Z,98862.56
2022-10-17T05:55:58.898Z,98869.16
2022-10-17T06:01:09.387Z,98865.81
2022-10-17T06:06:16.332Z,98864.84
2022-10-17T06:11:22.464Z,98869.81
2022-10-17T06:16:26.142Z,98881.00
2022-10-17T06:21:29.475Z,98884.34
2022-10-17T06:26:44.316Z,98894.28
2022-10-17T06:31:49.877Z,98898.69
2022-10-17T06:36:54.469Z,98910.97
2022-10-17T06:41:58.834Z,98903.88
2022-10-17T06:47:20.108Z,98914.19
2022-10-17T06:52:25.159Z,98924.72
2022-10-17T06:57:48.208Z,98920.09
2022-10-17T07:03:04.058Z,98926.34
2022-10-17T07:08:08.687Z,98935.00
2022-10-17T07:13:15.926Z,98936.09
2022-10-17T07:18:18.813Z,98948.63
2022-10-17T07:23:23.158Z,98938.94
2022-10-17T07:28:27.671Z,98955.69
2022-10-17T07:33:31.724Z,98953.78
2022-10-17T07:38:35.277Z,98960.53
2022-10-17T07:43:41.632Z,98962.00
2022-10-17T07:48:46.195Z,98962.91
2022-10-17T07:53:49.777Z,98971.19
2022-10-17T07:58:54.332Z,98979.34
2022-10-17T08:03:57.349Z,98967.72
2022-10-17T08:09:02.209Z,98959.03
2022-10-17T08:14:06.985Z,98957.63
2022-10-17T08:19:11.361Z,98959.00
2022-10-17T08:24:14.157Z,98971.19
2022-10-17T08:29:19.252Z,98955.50
2022-10-17T08:34:23.085Z,98958.91
2022-10-17T08:39:25.898Z,98959.25
2022-10-17T08:44:41.733Z,98956.53
2022-10-17T08:49:49.079Z,98976.59
2022-10-17T08:54:52.284Z,98966.78
2022-10-17T08:59:56.831Z,98972.44
2022-10-17T09:05:26.347Z,98974.94
2022-10-17T09:10:39.275Z,98975.66
2022-10-17T09:16:02.107Z,98969.06
2022-10-17T09:21:17.084Z,98973.44
2022-10-17T09:26:20.053Z,98981.97
2022-10-17T09:31:27.322Z,98991.31
2022-10-17T09:36:32.286Z,98997.97
2022-10-17T09:41:45.389Z,99000.41
2022-10-17T09:47:04.794Z,99002.47
2022-10-17T09:52:15.334Z,98997.16
2022-10-17T09:57:21.735Z,98999.38
2022-10-17T10:02:31.848Z,99020.28
2022-10-17T10:07:36.805Z,99023.94
2022-10-17T10:12:40.419Z,99014.09
2022-10-17T10:17:44.589Z,98989.97
2022-10-17T10:23:06.335Z,99017.97
2022-10-17T10:28:12.436Z,99014.47
2022-10-17T10:33:16.830Z,99026.66
2022-10-17T10:38:19.747Z,99035.72
2022-10-17T10:43:29.108Z,99027.56
2022-10-17T10:48:36.279Z,99039.22
2022-10-17T10:53:45.329Z,99033.72
2022-10-17T10:58:56.357Z,99041.53
2022-10-17T11:04:13.830Z,99040.31
2022-10-17T11:09:33.665Z,99046.25
2022-10-17T11:14:44.989Z,99047.88
2022-10-17T11:19:57.443Z,99040.38
2022-10-17T11:25:05.190Z,99037.13
2022-10-17T11:30:13.415Z,99046.91
2022-10-17T11:35:21.586Z,99051.59
2022-10-17T11:40:30.746Z,99063.06
2022-10-17T11:45:38.171Z,99066.47
2022-10-17T11:56:13.093Z,99080.34
2022-10-17T12:01:24.431Z,99086.44
2022-10-17T12:06:45.569Z,99085.75
2022-10-17T12:11:54.529Z,99086.47
2022-10-17T12:16:57.369Z,99082.22
2022-10-17T12:22:05.197Z,99080.16
2022-10-17T12:27:36.073Z,99082.41
2022-10-17T12:33:03.700Z,99079.72
2022-10-17T12:38:22.482Z,99083.94
2022-10-17T12:43:43.921Z,99084.94
2022-10-17T12:49:04.981Z,99083.56
2022-10-17T12:54:15.382Z,99075.34
2022-10-17T12:59:23.423Z,99068.63
2022-10-17T13:04:27.715Z,99077.75
2022-10-17T13:09:34.504Z,99076.88
2022-10-17T13:14:42.515Z,99086.19
2022-10-17T13:19:47.171Z,99090.53
2022-10-17T13:24:52.989Z,99093.81
2022-10-17T13:29:57.633Z,99098.44
2022-10-17T13:35:55.487Z,99097.63
2022-10-17T13:41:01.683Z,99103.56
2022-10-17T13:46:36.634Z,99110.66
2022-10-17T13:51:44.903Z,99109.88
2022-10-17T13:56:57.172Z,99120.59
2022-10-17T14:02:02.122Z,99126.16
2022-10-17T14:07:07.302Z,99123.09
2022-10-17T14:12:17.878Z,99128.56
2022-10-17T14:17:24.848Z,99128.19
2022-10-17T14:22:29.361Z,99138.22
2022-10-17T14:27:36.589Z,99145.91
2022-10-17T14:32:39.482Z,99141.06
2022-10-17T14:37:45.295Z,99145.78
2022-10-17T14:42:49.629Z,99136.34
2022-10-17T14:47:55.403Z,99141.38
2022-10-17T14:53:03.852Z,99145.59
2022-10-17T14:58:19.443Z,99143.47
2022-10-17T15:03:22.479Z,99155.06
2022-10-17T15:08:25.417Z,99159.56
2022-10-17T15:13:32.144Z,99164.81
2022-10-17T15:18:37.745Z,99170.34
2022-10-17T15:23:41.866Z,99173.34
2022-10-17T15:28:47.482Z,99172.06
2022-10-17T15:33:50.994Z,99166.81
2022-10-17T15:38:55.755Z,99172.84
2022-10-17T15:44:00.638Z,99172.41
2022-10-17T15:49:07.492Z,99172.53
2022-10-17T15:54:10.598Z,99178.88
2022-10-17T15:59:19.661Z,99181.78
2022-10-17T16:04:27.421Z,99191.81
2022-10-17T16:09:30.455Z,99191.88
2022-10-17T16:14:34.833Z,99203.09
2022-10-17T16:19:38.296Z,99207.53
2022-10-17T16:24:41.375Z,99209.78
2022-10-17T16:29:45.682Z,99220.94
2022-10-17T16:34:48.660Z,99219.97
2022-10-17T16:39:53.500Z,99218.97
2022-10-17T16:44:57.714Z,99223.06
2022-10-17T16:50:00.763Z,99228.63
2022-10-17T16:55:04.726Z,99241.59
2022-10-17T17:00:11.995Z,99244.44
2022-10-17T17:05:15.279Z,99256.06
2022-10-17T17:10:18.156Z,99265.97
2022-10-17T17:15:22.195Z,99262.69
2022-10-17T17:20:25.257Z,99264.47
2022-10-17T17:25:28.066Z,99257.50
2022-10-17T17:30:33.860Z,99265.53
2022-10-17T17:35:40.009Z,99271.53
2022-10-17T17:40:50.560Z,99265.56
2022-10-17T17:45:55.561Z,99272.44
2022-10-17T17:50:58.553Z,99271.00
2022-10-17T17:56:06.262Z,99271.97
2022-10-17T18:01:17.688Z,99272.19
2022-10-17T18:06:22.949Z,99276.50
2022-10-17T18:11:27.088Z,99285.38
2022-10-17T18:16:32.487Z,99288.00
2022-10-17T18:21:35.959Z,99289.75
2022-10-17T18:26:38.770Z,99297.44
2022-10-17T18:31:43.537Z,99303.16
2022-10-17T18:36:46.397Z,99297.13
2022-10-17T18:41:49.249Z,99293.59
2022-10-17T18:46:53.383Z,99303.50
2022-10-17T18:51:56.102Z,99320.16
2022-10-17T18:56:59.830Z,99315.91
2022-10-17T19:02:04.081Z,99313.13
2022-10-17T19:07:06.893Z,99320.53
2022-10-17T19:17:38.640Z,99320.56
2022-10-17T19:22:41.653Z,99321.88
2022-10-17T19:27:44.551Z,99323.00
2022-10-17T19:32:48.740Z,99317.91
2022-10-17T19:37:51.915Z,99320.59
2022-10-17T19:42:55.091Z,99318.53
2022-10-17T19:47:59.768Z,99323.50
2022-10-17T19:53:03.130Z,99323.94
2022-10-17T19:58:05.872Z,99321.84
2022-10-17T20:03:10.227Z,99320.44
2022-10-17T20:08:13.785Z,99316.09
2022-10-17T20:13:16.715Z,99315.66
2022-10-17T20:18:20.837Z,99324.47
2022-10-17T20:23:23.928Z,99332.84
2022-10-17T20:28:27.775Z,99333.13
2022-10-17T20:33:32.251Z,99330.84
2022-10-17T20:38:35.618Z,99342.38
2022-10-17T20:43:38.799Z,99344.38
2022-10-17T20:48:42.931Z,99334.84
2022-10-17T20:53:45.736Z,99343.38
2022-10-17T20:58:51.967Z,99338.59
2022-10-17T21:03:59.666Z,99345.09
2022-10-17T21:09:06.319Z,99354.16
2022-10-17T21:14:09.953Z,99356.41
2022-10-17T21:19:14.769Z,99360.09
2022-10-17T21:24:20.371Z,99355.72
2022-10-17T21:29:23.895Z,99360.09
2022-10-17T21:34:28.703Z,99357.13
2022-10-17T21:39:32.561Z,99360.22
2022-10-17T21:44:36.207Z,99363.91
2022-10-17T21:49:40.979Z,99362.22
2022-10-17T21:54:43.745Z,99366.06
2022-10-17T21:59:46.535Z,99359.81
2022-10-17T22:04:50.732Z,99355.56
2022-10-17T22:09:53.495Z,99357.41
2022-10-17T22:14:56.221Z,99364.78
2022-10-17T22:20:00.561Z,99360.53
2022-10-17T22:25:03.939Z,99370.28
2022-10-17T22:30:08.155Z,99360.53
2022-10-17T22:35:12.484Z,99362.38
2022-10-17T22:40:15.950Z,99359.81
2022-10-17T22:45:18.800Z,99356.59
2022-10-17T22:50:24.074Z,99356.41
2022-10-17T22:55:28.065Z,99365.34
2022-10-17T23:00:31.047Z,99354.44
2022-10-17T23:05:35.443Z,99345.38
2022-10-17T23:10:40.824Z,99344.38
2022-10-17T23:15:44.543Z,99343.25
2022-10-17T23:20:49.318Z,99330.81
2022-10-17T23:25:52.563Z,99339.00
2022-10-17T23:30:55.258Z,99336.88
2022-10-17T23:35:59.463Z,99341.28
2022-10-17T23:41:03.215Z,99340.44
2022-10-17T23:46:07.218Z,99340.72
2022-10-17T23:51:11.888Z,99344.97
2022-10-17T23:56:14.758Z,99335.91
